PWSweather.com
Personal Weather Stations
Station Observations
DEKREUPEL
Wsv De Kreupel, AndijkNL 1619 JV

Wsv De KreupelAndijkNL 1619 JV

Lat: 52.7417364, Lon: 5.1809356

Elevation: 33

Station Type: Rainwise MKiii LR

High Low Average
Temperature 61.7°F16.5°C 56.0°F13.3°C 57.4°F14.1°C
Dew Point 89.9°F32.2°C 83.3°F28.5°C 85.0°F29.4°C
Winds 22.3 mph 35.9 kmh Calm Calm 7.0 mph W11.3 kmh W
Wind Gusts 27.1 mph43.6 kmh -- 8.0 mph12.9 kmh
Humidity - - -
Pressure 30.28 in1025.4 mb 0.00 in0.0 mb -
Precipitation 0.04 in1.0 mm - -
Hour Temp Dew Point Humidity Winds Wind Gusts Pressure Precip Precip Rate Daily Precip Total
12:05 AM 61.2°F16.2°C 89.3°F31.8°C - 14.5 mph WSW23.3 kmh WSW 19.3 mph31.1 kmh 29.88 in1011.9 mb 0.00 in0.0 mm 0.00 in0.0 mm 0.02 in0.5 mm
12:09 AM 61.3°F16.3°C 89.4°F31.9°C - 15.9 mph WSW25.6 kmh WSW 20.9 mph33.6 kmh 29.88 in1011.9 mb 0.00 in0.0 mm 0.00 in0.0 mm 0.02 in0.5 mm
12:14 AM 61.6°F16.4°C 89.7°F32.1°C - 20.5 mph WSW33.0 kmh WSW 26.6 mph42.8 kmh 29.88 in1011.9 mb 0.00 in0.0 mm 0.00 in0.0 mm 0.03 in0.8 mm
12:19 AM 61.7°F16.5°C 89.9°F32.2°C - 15.7 mph WSW25.3 kmh WSW 20.5 mph33.0 kmh 29.89 in1012.2 mb 0.00 in0.0 mm 0.00 in0.0 mm 0.03 in0.8 mm
12:24 AM 61.6°F16.4°C 89.6°F32.0°C - 16.0 mph WSW25.7 kmh WSW 19.7 mph31.7 kmh 29.89 in1012.2 mb 0.00 in0.0 mm 0.00 in0.0 mm 0.03 in0.8 mm
12:29 AM 61.3°F16.3°C 89.3°F31.8°C - 15.7 mph W25.3 kmh W 20.5 mph33.0 kmh 29.89 in1012.2 mb 0.00 in0.0 mm 0.00 in0.0 mm 0.04 in1.0 mm
12:34 AM 61.2°F16.2°C 89.3°F31.8°C - 18.1 mph WSW29.1 kmh WSW 23.7 mph38.1 kmh 29.89 in1012.2 mb 0.00 in0.0 mm 0.00 in0.0 mm 0.04 in1.0 mm
12:39 AM 61.4°F16.3°C 89.5°F31.9°C - 17.4 mph WSW28.0 kmh WSW 23.6 mph38.0 kmh 29.89 in1012.2 mb 0.00 in0.0 mm 0.00 in0.0 mm 0.04 in1.0 mm
12:44 AM 61.6°F16.4°C 89.6°F32.0°C - 19.1 mph W30.7 kmh W 27.1 mph43.6 kmh 29.89 in1012.2 mb 0.00 in0.0 mm 0.00 in0.0 mm 0.04 in1.0 mm
12:49 AM 61.5°F16.4°C 89.6°F32.0°C - 19.8 mph W31.9 kmh W 25.0 mph40.2 kmh 29.89 in1012.2 mb 0.00 in0.0 mm 0.00 in0.0 mm 0.04 in1.0 mm
12:54 AM 61.3°F16.3°C 89.4°F31.9°C - 18.9 mph W30.4 kmh W 23.3 mph37.5 kmh 29.89 in1012.2 mb 0.00 in0.0 mm 0.00 in0.0 mm 0.04 in1.0 mm
01:00 AM 61.2°F16.2°C 89.3°F31.8°C - 16.9 mph W27.2 kmh W 21.1 mph34.0 kmh 29.89 in1012.2 mb 0.00 in0.0 mm 0.00 in0.0 mm 0.04 in1.0 mm
01:04 AM 61.2°F16.2°C 89.3°F31.8°C - 18.4 mph W29.6 kmh W 23.0 mph37.0 kmh 29.89 in1012.2 mb 0.00 in0.0 mm 0.00 in0.0 mm 0.04 in1.0 mm
01:09 AM 61.2°F16.2°C 89.3°F31.8°C - 16.1 mph W25.9 kmh W 20.7 mph33.3 kmh 29.89 in1012.2 mb 0.00 in0.0 mm 0.00 in0.0 mm 0.04 in1.0 mm
01:14 AM 61.3°F16.3°C 89.3°F31.8°C - 17.7 mph W28.5 kmh W 22.4 mph36.0 kmh 29.89 in1012.2 mb 0.00 in0.0 mm 0.00 in0.0 mm 0.04 in1.0 mm
01:20 AM 61.5°F16.4°C 89.6°F32.0°C - 16.4 mph W26.4 kmh W 22.6 mph36.4 kmh 29.90 in1012.5 mb 0.00 in0.0 mm 0.00 in0.0 mm 0.04 in1.0 mm
01:24 AM 61.6°F16.4°C 89.7°F32.1°C - 16.5 mph W26.6 kmh W 22.9 mph36.9 kmh 29.90 in1012.5 mb 0.00 in0.0 mm 0.00 in0.0 mm 0.04 in1.0 mm
01:29 AM 61.7°F16.5°C 89.9°F32.2°C - 18.3 mph W29.5 kmh W 22.7 mph36.5 kmh 29.90 in1012.5 mb 0.00 in0.0 mm 0.00 in0.0 mm 0.04 in1.0 mm
01:34 AM 61.7°F16.5°C 89.9°F32.2°C - 16.9 mph W27.2 kmh W 21.2 mph34.1 kmh 29.90 in1012.5 mb 0.00 in0.0 mm 0.00 in0.0 mm 0.04 in1.0 mm
01:39 AM 61.7°F16.5°C 89.7°F32.1°C - 16.9 mph W27.2 kmh W 20.7 mph33.3 kmh 29.90 in1012.5 mb 0.00 in0.0 mm 0.00 in0.0 mm 0.04 in1.0 mm
01:44 AM 61.7°F16.5°C 89.7°F32.1°C - 18.4 mph W29.6 kmh W 22.5 mph36.2 kmh 29.90 in1012.5 mb 0.00 in0.0 mm 0.00 in0.0 mm 0.04 in1.0 mm
01:49 AM 61.7°F16.5°C 89.9°F32.2°C - 17.5 mph W28.2 kmh W 22.8 mph36.7 kmh 29.90 in1012.5 mb 0.00 in0.0 mm 0.00 in0.0 mm 0.04 in1.0 mm
01:54 AM 61.6°F16.4°C 89.6°F32.0°C - 16.5 mph W26.6 kmh W 20.3 mph32.7 kmh 29.90 in1012.5 mb 0.00 in0.0 mm 0.00 in0.0 mm 0.04 in1.0 mm
02:00 AM 61.6°F16.4°C 89.7°F32.1°C - 16.5 mph W26.6 kmh W 22.4 mph36.0 kmh 29.90 in1012.5 mb 0.00 in0.0 mm 0.00 in0.0 mm 0.04 in1.0 mm
02:04 AM 61.5°F16.4°C 89.6°F32.0°C - 15.0 mph W24.1 kmh W 17.6 mph28.3 kmh 29.91 in1012.9 mb 0.00 in0.0 mm 0.00 in0.0 mm 0.04 in1.0 mm
02:09 AM 61.3°F16.3°C 89.3°F31.8°C - 16.1 mph W25.9 kmh W 22.0 mph35.4 kmh 29.91 in1012.9 mb 0.00 in0.0 mm 0.00 in0.0 mm 0.04 in1.0 mm
02:14 AM 61.3°F16.3°C 89.3°F31.8°C - 16.6 mph W26.7 kmh W 21.2 mph34.1 kmh 29.91 in1012.9 mb 0.00 in0.0 mm 0.00 in0.0 mm 0.04 in1.0 mm
02:19 AM 61.2°F16.2°C 89.2°F31.8°C - 16.1 mph W25.9 kmh W 20.2 mph32.5 kmh 29.92 in1013.2 mb 0.00 in0.0 mm 0.00 in0.0 mm 0.04 in1.0 mm
02:24 AM 61.2°F16.2°C 89.2°F31.8°C - 16.3 mph W26.2 kmh W 19.6 mph31.5 kmh 29.92 in1013.2 mb 0.00 in0.0 mm 0.00 in0.0 mm 0.04 in1.0 mm
02:29 AM 61.0°F16.1°C 89.1°F31.7°C - 17.2 mph W27.7 kmh W 20.8 mph33.5 kmh 29.92 in1013.2 mb 0.00 in0.0 mm 0.00 in0.0 mm 0.04 in1.0 mm
02:34 AM 60.8°F16.0°C 88.7°F31.5°C - 16.9 mph W27.2 kmh W 20.8 mph33.5 kmh 29.92 in1013.2 mb 0.00 in0.0 mm 0.00 in0.0 mm 0.04 in1.0 mm
02:39 AM 60.7°F15.9°C 88.6°F31.4°C - 19.3 mph WNW31.1 kmh WNW 23.2 mph37.3 kmh 29.93 in1013.5 mb 0.00 in0.0 mm 0.00 in0.0 mm 0.04 in1.0 mm
02:45 AM 60.7°F15.9°C 88.7°F31.5°C - 16.3 mph WNW26.2 kmh WNW 19.7 mph31.7 kmh 29.93 in1013.5 mb 0.00 in0.0 mm 0.00 in0.0 mm 0.04 in1.0 mm
02:49 AM 60.5°F15.8°C 88.5°F31.4°C - 19.7 mph WNW31.7 kmh WNW 24.1 mph38.8 kmh 29.93 in1013.5 mb 0.00 in0.0 mm 0.00 in0.0 mm 0.04 in1.0 mm
02:54 AM 60.2°F15.7°C 88.0°F31.1°C - 21.8 mph WNW35.1 kmh WNW 25.3 mph40.7 kmh 29.93 in1013.5 mb 0.00 in0.0 mm 0.00 in0.0 mm 0.04 in1.0 mm
03:00 AM 59.9°F15.5°C 87.8°F31.0°C - 18.0 mph WNW29.0 kmh WNW 20.6 mph33.2 kmh 29.93 in1013.5 mb 0.00 in0.0 mm 0.00 in0.0 mm 0.04 in1.0 mm
03:04 AM 59.7°F15.4°C 87.6°F30.9°C - 16.6 mph WNW26.7 kmh WNW 19.9 mph32.0 kmh 29.94 in1013.9 mb 0.00 in0.0 mm 0.00 in0.0 mm 0.04 in1.0 mm
03:09 AM 59.3°F15.2°C 87.0°F30.6°C - 19.6 mph WNW31.5 kmh WNW 23.0 mph37.0 kmh 29.94 in1013.9 mb 0.00 in0.0 mm 0.00 in0.0 mm 0.04 in1.0 mm
03:14 AM 59.2°F15.1°C 87.0°F30.6°C - 18.2 mph WNW29.3 kmh WNW 21.3 mph34.3 kmh 29.94 in1013.9 mb 0.00 in0.0 mm 0.00 in0.0 mm 0.04 in1.0 mm
03:19 AM 59.0°F15.0°C 86.8°F30.4°C - 17.3 mph WNW27.8 kmh WNW 20.2 mph32.5 kmh 29.94 in1013.9 mb 0.00 in0.0 mm 0.00 in0.0 mm 0.04 in1.0 mm
03:25 AM 58.7°F14.8°C 86.5°F30.3°C - 17.3 mph WNW27.8 kmh WNW 20.9 mph33.6 kmh 29.94 in1013.9 mb 0.00 in0.0 mm 0.00 in0.0 mm 0.04 in1.0 mm
03:29 AM 58.7°F14.8°C 86.5°F30.3°C - 17.7 mph WNW28.5 kmh WNW 20.2 mph32.5 kmh 29.95 in1014.2 mb 0.00 in0.0 mm 0.00 in0.0 mm 0.04 in1.0 mm
03:34 AM 58.7°F14.8°C 86.5°F30.3°C - 16.8 mph WNW27.0 kmh WNW 19.9 mph32.0 kmh 29.95 in1014.2 mb 0.00 in0.0 mm 0.00 in0.0 mm 0.04 in1.0 mm
03:39 AM 58.7°F14.8°C 86.5°F30.3°C - 15.4 mph WNW24.8 kmh WNW 17.9 mph28.8 kmh 29.95 in1014.2 mb 0.00 in0.0 mm 0.00 in0.0 mm 0.04 in1.0 mm
03:45 AM 58.6°F14.8°C 86.4°F30.2°C - 16.1 mph W25.9 kmh W 18.3 mph29.5 kmh 29.95 in1014.2 mb 0.00 in0.0 mm 0.00 in0.0 mm 0.04 in1.0 mm
03:49 AM 58.6°F14.8°C 86.4°F30.2°C - 15.3 mph W24.6 kmh W 17.7 mph28.5 kmh 29.95 in1014.2 mb 0.00 in0.0 mm 0.00 in0.0 mm 0.04 in1.0 mm
03:54 AM 58.5°F14.7°C 86.1°F30.1°C - 14.6 mph W23.5 kmh W 18.6 mph29.9 kmh 29.96 in1014.6 mb 0.00 in0.0 mm 0.00 in0.0 mm 0.04 in1.0 mm
03:59 AM 58.3°F14.6°C 86.0°F30.0°C - 15.1 mph W24.3 kmh W 18.7 mph30.1 kmh 29.96 in1014.6 mb 0.00 in0.0 mm 0.00 in0.0 mm 0.04 in1.0 mm
04:04 AM 58.3°F14.6°C 86.0°F30.0°C - 19.0 mph W30.6 kmh W 23.1 mph37.2 kmh 29.96 in1014.6 mb 0.00 in0.0 mm 0.00 in0.0 mm 0.04 in1.0 mm
04:09 AM 58.2°F14.6°C 85.9°F29.9°C - 15.4 mph W24.8 kmh W 18.8 mph30.3 kmh 29.96 in1014.6 mb 0.00 in0.0 mm 0.00 in0.0 mm 0.04 in1.0 mm
04:14 AM 58.1°F14.5°C 85.8°F29.9°C - 15.2 mph WNW24.5 kmh WNW 19.2 mph30.9 kmh 29.96 in1014.6 mb 0.00 in0.0 mm 0.00 in0.0 mm 0.04 in1.0 mm
04:19 AM 58.0°F14.4°C 85.7°F29.8°C - 15.0 mph WNW24.1 kmh WNW 17.6 mph28.3 kmh 29.97 in1014.9 mb 0.00 in0.0 mm 0.00 in0.0 mm 0.04 in1.0 mm
04:24 AM 57.8°F14.3°C 85.5°F29.7°C - 17.1 mph WNW27.5 kmh WNW 20.6 mph33.2 kmh 29.97 in1014.9 mb 0.00 in0.0 mm 0.00 in0.0 mm 0.04 in1.0 mm
04:29 AM 58.0°F14.4°C 85.6°F29.8°C - 19.6 mph WNW31.5 kmh WNW 23.2 mph37.3 kmh 29.98 in1015.2 mb 0.00 in0.0 mm 0.00 in0.0 mm 0.04 in1.0 mm
04:34 AM 57.9°F14.4°C 85.6°F29.8°C - 22.3 mph WNW35.9 kmh WNW 26.0 mph41.8 kmh 29.97 in1014.9 mb 0.00 in0.0 mm 0.00 in0.0 mm 0.04 in1.0 mm
04:39 AM 57.8°F14.3°C 85.5°F29.7°C - 20.4 mph WNW32.8 kmh WNW 24.0 mph38.6 kmh 29.98 in1015.2 mb 0.00 in0.0 mm 0.00 in0.0 mm 0.04 in1.0 mm
04:44 AM 57.8°F14.3°C 85.5°F29.7°C - 20.5 mph WNW33.0 kmh WNW 24.2 mph38.9 kmh 29.99 in1015.6 mb 0.00 in0.0 mm 0.00 in0.0 mm 0.04 in1.0 mm
04:49 AM 57.7°F14.3°C 85.3°F29.6°C - 20.7 mph WNW33.3 kmh WNW 24.0 mph38.6 kmh 29.99 in1015.6 mb 0.00 in0.0 mm 0.00 in0.0 mm 0.04 in1.0 mm
04:54 AM 57.6°F14.2°C 85.2°F29.6°C - 19.8 mph WNW31.9 kmh WNW 22.7 mph36.5 kmh 29.99 in1015.6 mb 0.00 in0.0 mm 0.00 in0.0 mm 0.04 in1.0 mm
04:59 AM 57.5°F14.2°C 85.1°F29.5°C - 20.2 mph WNW32.5 kmh WNW 23.1 mph37.2 kmh 29.99 in1015.6 mb 0.00 in0.0 mm 0.00 in0.0 mm 0.04 in1.0 mm
05:04 AM 57.3°F14.1°C 84.9°F29.4°C - 18.0 mph WNW29.0 kmh WNW 20.9 mph33.6 kmh 30.00 in1015.9 mb 0.00 in0.0 mm 0.00 in0.0 mm 0.04 in1.0 mm
05:09 AM 57.3°F14.1°C 84.9°F29.4°C - 19.7 mph WNW31.7 kmh WNW 24.1 mph38.8 kmh 30.00 in1015.9 mb 0.00 in0.0 mm 0.00 in0.0 mm 0.04 in1.0 mm
05:14 AM 57.2°F14.0°C 84.8°F29.3°C - 18.8 mph WNW30.3 kmh WNW 22.1 mph35.6 kmh 30.00 in1015.9 mb 0.00 in0.0 mm 0.00 in0.0 mm 0.04 in1.0 mm
05:19 AM 57.2°F14.0°C 84.8°F29.3°C - 19.9 mph WNW32.0 kmh WNW 24.4 mph39.3 kmh 30.00 in1015.9 mb 0.00 in0.0 mm 0.00 in0.0 mm 0.04 in1.0 mm
05:24 AM 57.2°F14.0°C 84.8°F29.3°C - 21.1 mph WNW34.0 kmh WNW 24.7 mph39.8 kmh 30.00 in1015.9 mb 0.00 in0.0 mm 0.00 in0.0 mm 0.04 in1.0 mm
05:29 AM 57.1°F13.9°C 84.7°F29.3°C - 20.1 mph WNW32.3 kmh WNW 24.1 mph38.8 kmh 30.01 in1016.3 mb 0.00 in0.0 mm 0.00 in0.0 mm 0.04 in1.0 mm
05:35 AM 57.0°F13.9°C 84.4°F29.1°C - 19.4 mph WNW31.2 kmh WNW 22.6 mph36.4 kmh 30.01 in1016.3 mb 0.00 in0.0 mm 0.00 in0.0 mm 0.04 in1.0 mm
05:39 AM 57.0°F13.9°C 84.6°F29.2°C - 19.7 mph WNW31.7 kmh WNW 24.0 mph38.6 kmh 30.01 in1016.3 mb 0.00 in0.0 mm 0.00 in0.0 mm 0.04 in1.0 mm
05:45 AM 56.8°F13.8°C 84.3°F29.1°C - 21.5 mph WNW34.6 kmh WNW 25.8 mph41.5 kmh 30.02 in1016.6 mb 0.00 in0.0 mm 0.00 in0.0 mm 0.04 in1.0 mm
05:49 AM 56.8°F13.8°C 84.3°F29.1°C - 22.3 mph WNW35.9 kmh WNW 26.0 mph41.8 kmh 30.02 in1016.6 mb 0.00 in0.0 mm 0.00 in0.0 mm 0.04 in1.0 mm
05:54 AM 56.8°F13.8°C 84.3°F29.1°C - 21.1 mph WNW34.0 kmh WNW 24.3 mph39.1 kmh 30.02 in1016.6 mb 0.00 in0.0 mm 0.00 in0.0 mm 0.04 in1.0 mm
05:59 AM 56.7°F13.7°C 84.2°F29.0°C - 20.0 mph WNW32.2 kmh WNW 24.6 mph39.6 kmh 30.02 in1016.6 mb 0.00 in0.0 mm 0.00 in0.0 mm 0.04 in1.0 mm
06:04 AM 56.5°F13.6°C 84.0°F28.9°C - 15.8 mph WNW25.4 kmh WNW 22.0 mph35.4 kmh 30.02 in1016.6 mb 0.00 in0.0 mm 0.00 in0.0 mm 0.04 in1.0 mm
06:09 AM 56.3°F13.5°C 83.8°F28.8°C - 19.1 mph WNW30.7 kmh WNW 24.0 mph38.6 kmh 30.03 in1016.9 mb 0.00 in0.0 mm 0.00 in0.0 mm 0.04 in1.0 mm
06:14 AM 56.2°F13.4°C 83.5°F28.6°C - 19.1 mph WNW30.7 kmh WNW 22.3 mph35.9 kmh 30.03 in1016.9 mb 0.00 in0.0 mm 0.00 in0.0 mm 0.04 in1.0 mm
06:19 AM 56.1°F13.4°C 83.5°F28.6°C - 15.7 mph W25.3 kmh W 19.0 mph30.6 kmh 30.03 in1016.9 mb 0.00 in0.0 mm 0.00 in0.0 mm 0.04 in1.0 mm
06:24 AM 56.0°F13.3°C 83.3°F28.5°C - 15.3 mph WNW24.6 kmh WNW 17.9 mph28.8 kmh 30.04 in1017.3 mb 0.00 in0.0 mm 0.00 in0.0 mm 0.04 in1.0 mm
06:29 AM 56.0°F13.3°C 83.4°F28.6°C - 15.4 mph W24.8 kmh W 17.8 mph28.6 kmh 30.03 in1016.9 mb 0.00 in0.0 mm 0.00 in0.0 mm 0.04 in1.0 mm
06:34 AM 56.1°F13.4°C 83.5°F28.6°C - 20.2 mph WNW32.5 kmh WNW 25.0 mph40.2 kmh 30.04 in1017.3 mb 0.00 in0.0 mm 0.00 in0.0 mm 0.04 in1.0 mm
06:39 AM 56.3°F13.5°C 83.8°F28.8°C - 18.6 mph WNW29.9 kmh WNW 22.4 mph36.0 kmh 30.04 in1017.3 mb 0.00 in0.0 mm 0.00 in0.0 mm 0.04 in1.0 mm
06:44 AM 56.3°F13.5°C 83.8°F28.8°C - 19.3 mph WNW31.1 kmh WNW 22.1 mph35.6 kmh 30.04 in1017.3 mb 0.00 in0.0 mm 0.00 in0.0 mm 0.04 in1.0 mm
06:49 AM 56.2°F13.4°C 83.7°F28.7°C - 18.2 mph WNW29.3 kmh WNW 21.5 mph34.6 kmh 30.04 in1017.3 mb 0.00 in0.0 mm 0.00 in0.0 mm 0.04 in1.0 mm
06:54 AM 56.0°F13.3°C 83.3°F28.5°C - 18.5 mph WNW29.8 kmh WNW 21.6 mph34.8 kmh 30.05 in1017.6 mb 0.00 in0.0 mm 0.00 in0.0 mm 0.04 in1.0 mm
06:59 AM 56.0°F13.3°C 83.3°F28.5°C - 18.3 mph WNW29.5 kmh WNW 21.6 mph34.8 kmh 30.05 in1017.6 mb 0.00 in0.0 mm 0.00 in0.0 mm 0.04 in1.0 mm
07:04 AM 56.1°F13.4°C 83.5°F28.6°C - 20.3 mph WNW32.7 kmh WNW 24.6 mph39.6 kmh 30.06 in1017.9 mb 0.00 in0.0 mm 0.00 in0.0 mm 0.04 in1.0 mm
07:09 AM 56.1°F13.4°C 83.5°F28.6°C - 18.8 mph WNW30.3 kmh WNW 21.9 mph35.2 kmh 30.06 in1017.9 mb 0.00 in0.0 mm 0.00 in0.0 mm 0.04 in1.0 mm
07:10 AM 56.1°F13.4°C 83.5°F28.6°C - Calm Calm -- 0.00 in0.0 mb 0.00 in0.0 mm 0.00 in0.0 mm 0.04 in1.0 mm
07:25 AM 56.1°F13.4°C 83.5°F28.6°C - Calm Calm -- 0.00 in0.0 mb 0.00 in0.0 mm 0.00 in0.0 mm 0.04 in1.0 mm
07:30 AM 56.1°F13.4°C 83.5°F28.6°C - Calm Calm -- 0.00 in0.0 mb 0.00 in0.0 mm 0.00 in0.0 mm 0.04 in1.0 mm
07:35 AM 56.1°F13.4°C 83.5°F28.6°C - Calm Calm -- 0.00 in0.0 mb 0.00 in0.0 mm 0.00 in0.0 mm 0.04 in1.0 mm
07:40 AM 56.1°F13.4°C 83.5°F28.6°C - Calm Calm -- 0.00 in0.0 mb 0.00 in0.0 mm 0.00 in0.0 mm 0.04 in1.0 mm
07:45 AM 56.1°F13.4°C 83.5°F28.6°C - Calm Calm -- 0.00 in0.0 mb 0.00 in0.0 mm 0.00 in0.0 mm 0.04 in1.0 mm
07:50 AM 56.1°F13.4°C 83.5°F28.6°C - Calm Calm -- 0.00 in0.0 mb 0.00 in0.0 mm 0.00 in0.0 mm 0.04 in1.0 mm
07:55 AM 56.1°F13.4°C 83.5°F28.6°C - Calm Calm -- 0.00 in0.0 mb 0.00 in0.0 mm 0.00 in0.0 mm 0.04 in1.0 mm
08:00 AM 56.1°F13.4°C 83.5°F28.6°C - Calm Calm -- 0.00 in0.0 mb 0.00 in0.0 mm 0.00 in0.0 mm 0.04 in1.0 mm
08:05 AM 56.1°F13.4°C 83.5°F28.6°C - Calm Calm -- 0.00 in0.0 mb 0.00 in0.0 mm 0.00 in0.0 mm 0.04 in1.0 mm
08:10 AM 56.1°F13.4°C 83.5°F28.6°C - Calm Calm -- 0.00 in0.0 mb 0.00 in0.0 mm 0.00 in0.0 mm 0.04 in1.0 mm
08:15 AM 56.1°F13.4°C 83.5°F28.6°C - Calm Calm -- 0.00 in0.0 mb 0.00 in0.0 mm 0.00 in0.0 mm 0.04 in1.0 mm
08:20 AM 56.1°F13.4°C 83.5°F28.6°C - Calm Calm -- 0.00 in0.0 mb 0.00 in0.0 mm 0.00 in0.0 mm 0.04 in1.0 mm
08:25 AM 56.1°F13.4°C 83.5°F28.6°C - Calm Calm -- 0.00 in0.0 mb 0.00 in0.0 mm 0.00 in0.0 mm 0.04 in1.0 mm
08:30 AM 56.1°F13.4°C 83.5°F28.6°C - Calm Calm -- 0.00 in0.0 mb 0.00 in0.0 mm 0.00 in0.0 mm 0.04 in1.0 mm
08:35 AM 56.1°F13.4°C 83.5°F28.6°C - Calm Calm -- 0.00 in0.0 mb 0.00 in0.0 mm 0.00 in0.0 mm 0.04 in1.0 mm
08:40 AM 56.1°F13.4°C 83.5°F28.6°C - Calm Calm -- 0.00 in0.0 mb 0.00 in0.0 mm 0.00 in0.0 mm 0.04 in1.0 mm
08:45 AM 56.1°F13.4°C 83.5°F28.6°C - Calm Calm -- 0.00 in0.0 mb 0.00 in0.0 mm 0.00 in0.0 mm 0.04 in1.0 mm
08:50 AM 56.1°F13.4°C 83.5°F28.6°C - Calm Calm -- 0.00 in0.0 mb 0.00 in0.0 mm 0.00 in0.0 mm 0.04 in1.0 mm
08:55 AM 56.1°F13.4°C 83.5°F28.6°C - Calm Calm -- 0.00 in0.0 mb 0.00 in0.0 mm 0.00 in0.0 mm 0.04 in1.0 mm
09:00 AM 56.1°F13.4°C 83.5°F28.6°C - Calm Calm -- 0.00 in0.0 mb 0.00 in0.0 mm 0.00 in0.0 mm 0.04 in1.0 mm
09:05 AM 56.1°F13.4°C 83.5°F28.6°C - Calm Calm -- 0.00 in0.0 mb 0.00 in0.0 mm 0.00 in0.0 mm 0.04 in1.0 mm
09:10 AM 56.1°F13.4°C 83.5°F28.6°C - Calm Calm -- 0.00 in0.0 mb 0.00 in0.0 mm 0.00 in0.0 mm 0.04 in1.0 mm
09:15 AM 56.1°F13.4°C 83.5°F28.6°C - Calm Calm -- 0.00 in0.0 mb 0.00 in0.0 mm 0.00 in0.0 mm 0.04 in1.0 mm
09:20 AM 56.1°F13.4°C 83.5°F28.6°C - Calm Calm -- 0.00 in0.0 mb 0.00 in0.0 mm 0.00 in0.0 mm 0.04 in1.0 mm
09:25 AM 56.1°F13.4°C 83.5°F28.6°C - Calm Calm -- 0.00 in0.0 mb 0.00 in0.0 mm 0.00 in0.0 mm 0.04 in1.0 mm
09:30 AM 56.1°F13.4°C 83.5°F28.6°C - Calm Calm -- 0.00 in0.0 mb 0.00 in0.0 mm 0.00 in0.0 mm 0.04 in1.0 mm
09:35 AM 56.1°F13.4°C 83.5°F28.6°C - Calm Calm -- 0.00 in0.0 mb 0.00 in0.0 mm 0.00 in0.0 mm 0.04 in1.0 mm
09:40 AM 56.1°F13.4°C 83.5°F28.6°C - Calm Calm -- 0.00 in0.0 mb 0.00 in0.0 mm 0.00 in0.0 mm 0.04 in1.0 mm
09:45 AM 56.1°F13.4°C 83.5°F28.6°C - Calm Calm -- 0.00 in0.0 mb 0.00 in0.0 mm 0.00 in0.0 mm 0.04 in1.0 mm
09:50 AM 56.1°F13.4°C 83.5°F28.6°C - Calm Calm -- 0.00 in0.0 mb 0.00 in0.0 mm 0.00 in0.0 mm 0.04 in1.0 mm
09:55 AM 56.1°F13.4°C 83.5°F28.6°C - Calm Calm -- 0.00 in0.0 mb 0.00 in0.0 mm 0.00 in0.0 mm 0.04 in1.0 mm
10:00 AM 56.1°F13.4°C 83.5°F28.6°C - Calm Calm -- 0.00 in0.0 mb 0.00 in0.0 mm 0.00 in0.0 mm 0.04 in1.0 mm
10:05 AM 56.1°F13.4°C 83.5°F28.6°C - Calm Calm -- 0.00 in0.0 mb 0.00 in0.0 mm 0.00 in0.0 mm 0.04 in1.0 mm
10:10 AM 56.1°F13.4°C 83.5°F28.6°C - Calm Calm -- 0.00 in0.0 mb 0.00 in0.0 mm 0.00 in0.0 mm 0.04 in1.0 mm
10:15 AM 56.1°F13.4°C 83.5°F28.6°C - Calm Calm -- 0.00 in0.0 mb 0.00 in0.0 mm 0.00 in0.0 mm 0.04 in1.0 mm
10:20 AM 56.1°F13.4°C 83.5°F28.6°C - Calm Calm -- 0.00 in0.0 mb 0.00 in0.0 mm 0.00 in0.0 mm 0.04 in1.0 mm
10:25 AM 56.1°F13.4°C 83.5°F28.6°C - Calm Calm -- 0.00 in0.0 mb 0.00 in0.0 mm 0.00 in0.0 mm 0.04 in1.0 mm
10:30 AM 56.1°F13.4°C 83.5°F28.6°C - Calm Calm -- 0.00 in0.0 mb 0.00 in0.0 mm 0.00 in0.0 mm 0.04 in1.0 mm
10:35 AM 56.1°F13.4°C 83.5°F28.6°C - Calm Calm -- 0.00 in0.0 mb 0.00 in0.0 mm 0.00 in0.0 mm 0.04 in1.0 mm
10:40 AM 56.1°F13.4°C 83.5°F28.6°C - Calm Calm -- 0.00 in0.0 mb 0.00 in0.0 mm 0.00 in0.0 mm 0.04 in1.0 mm
10:45 AM 56.1°F13.4°C 83.5°F28.6°C - Calm Calm -- 0.00 in0.0 mb 0.00 in0.0 mm 0.00 in0.0 mm 0.04 in1.0 mm
10:50 AM 56.1°F13.4°C 83.5°F28.6°C - Calm Calm -- 0.00 in0.0 mb 0.00 in0.0 mm 0.00 in0.0 mm 0.04 in1.0 mm
10:55 AM 56.1°F13.4°C 83.5°F28.6°C - Calm Calm -- 0.00 in0.0 mb 0.00 in0.0 mm 0.00 in0.0 mm 0.04 in1.0 mm
11:00 AM 56.1°F13.4°C 83.5°F28.6°C - Calm Calm -- 0.00 in0.0 mb 0.00 in0.0 mm 0.00 in0.0 mm 0.04 in1.0 mm
11:05 AM 56.1°F13.4°C 83.5°F28.6°C - Calm Calm -- 0.00 in0.0 mb 0.00 in0.0 mm 0.00 in0.0 mm 0.04 in1.0 mm
11:10 AM 56.1°F13.4°C 83.5°F28.6°C - Calm Calm -- 0.00 in0.0 mb 0.00 in0.0 mm 0.00 in0.0 mm 0.04 in1.0 mm
11:15 AM 56.1°F13.4°C 83.5°F28.6°C - Calm Calm -- 0.00 in0.0 mb 0.00 in0.0 mm 0.00 in0.0 mm 0.04 in1.0 mm
11:20 AM 56.1°F13.4°C 83.5°F28.6°C - Calm Calm -- 0.00 in0.0 mb 0.00 in0.0 mm 0.00 in0.0 mm 0.04 in1.0 mm
11:25 AM 56.1°F13.4°C 83.5°F28.6°C - Calm Calm -- 0.00 in0.0 mb 0.00 in0.0 mm 0.00 in0.0 mm 0.04 in1.0 mm
11:30 AM 56.1°F13.4°C 83.5°F28.6°C - Calm Calm -- 0.00 in0.0 mb 0.00 in0.0 mm 0.00 in0.0 mm 0.04 in1.0 mm
11:35 AM 56.1°F13.4°C 83.5°F28.6°C - Calm Calm -- 0.00 in0.0 mb 0.00 in0.0 mm 0.00 in0.0 mm 0.04 in1.0 mm
11:40 AM 56.1°F13.4°C 83.5°F28.6°C - Calm Calm -- 0.00 in0.0 mb 0.00 in0.0 mm 0.00 in0.0 mm 0.04 in1.0 mm
11:45 AM 56.1°F13.4°C 83.5°F28.6°C - Calm Calm -- 0.00 in0.0 mb 0.00 in0.0 mm 0.00 in0.0 mm 0.04 in1.0 mm
11:50 AM 56.1°F13.4°C 83.5°F28.6°C - Calm Calm -- 0.00 in0.0 mb 0.00 in0.0 mm 0.00 in0.0 mm 0.04 in1.0 mm
11:55 AM 56.1°F13.4°C 83.5°F28.6°C - Calm Calm -- 0.00 in0.0 mb 0.00 in0.0 mm 0.00 in0.0 mm 0.04 in1.0 mm
12:00 PM 56.1°F13.4°C 83.5°F28.6°C - Calm Calm -- 0.00 in0.0 mb 0.00 in0.0 mm 0.00 in0.0 mm 0.04 in1.0 mm
12:05 PM 56.1°F13.4°C 83.5°F28.6°C - Calm Calm -- 0.00 in0.0 mb 0.00 in0.0 mm 0.00 in0.0 mm 0.04 in1.0 mm
12:10 PM 56.1°F13.4°C 83.5°F28.6°C - Calm Calm -- 0.00 in0.0 mb 0.00 in0.0 mm 0.00 in0.0 mm 0.04 in1.0 mm
12:15 PM 56.1°F13.4°C 83.5°F28.6°C - Calm Calm -- 0.00 in0.0 mb 0.00 in0.0 mm 0.00 in0.0 mm 0.04 in1.0 mm
12:20 PM 56.1°F13.4°C 83.5°F28.6°C - Calm Calm -- 0.00 in0.0 mb 0.00 in0.0 mm 0.00 in0.0 mm 0.04 in1.0 mm
12:25 PM 56.1°F13.4°C 83.5°F28.6°C - Calm Calm -- 0.00 in0.0 mb 0.00 in0.0 mm 0.00 in0.0 mm 0.04 in1.0 mm
12:30 PM 56.1°F13.4°C 83.5°F28.6°C - Calm Calm -- 0.00 in0.0 mb 0.00 in0.0 mm 0.00 in0.0 mm 0.04 in1.0 mm
12:35 PM 56.1°F13.4°C 83.5°F28.6°C - Calm Calm -- 0.00 in0.0 mb 0.00 in0.0 mm 0.00 in0.0 mm 0.04 in1.0 mm
12:40 PM 56.1°F13.4°C 83.5°F28.6°C - Calm Calm -- 0.00 in0.0 mb 0.00 in0.0 mm 0.00 in0.0 mm 0.04 in1.0 mm
12:45 PM 56.1°F13.4°C 83.5°F28.6°C - Calm Calm -- 0.00 in0.0 mb 0.00 in0.0 mm 0.00 in0.0 mm 0.04 in1.0 mm
12:50 PM 56.1°F13.4°C 83.5°F28.6°C - Calm Calm -- 0.00 in0.0 mb 0.00 in0.0 mm 0.00 in0.0 mm 0.04 in1.0 mm
12:55 PM 56.1°F13.4°C 83.5°F28.6°C - Calm Calm -- 0.00 in0.0 mb 0.00 in0.0 mm 0.00 in0.0 mm 0.04 in1.0 mm
01:00 PM 56.1°F13.4°C 83.5°F28.6°C - Calm Calm -- 0.00 in0.0 mb 0.00 in0.0 mm 0.00 in0.0 mm 0.04 in1.0 mm
01:05 PM 56.1°F13.4°C 83.5°F28.6°C - Calm Calm -- 0.00 in0.0 mb 0.00 in0.0 mm 0.00 in0.0 mm 0.04 in1.0 mm
01:10 PM 56.1°F13.4°C 83.5°F28.6°C - Calm Calm -- 0.00 in0.0 mb 0.00 in0.0 mm 0.00 in0.0 mm 0.04 in1.0 mm
01:15 PM 56.1°F13.4°C 83.5°F28.6°C - Calm Calm -- 0.00 in0.0 mb 0.00 in0.0 mm 0.00 in0.0 mm 0.04 in1.0 mm
01:20 PM 56.1°F13.4°C 83.5°F28.6°C - Calm Calm -- 0.00 in0.0 mb 0.00 in0.0 mm 0.00 in0.0 mm 0.04 in1.0 mm
01:25 PM 56.1°F13.4°C 83.5°F28.6°C - Calm Calm -- 0.00 in0.0 mb 0.00 in0.0 mm 0.00 in0.0 mm 0.04 in1.0 mm
01:30 PM 56.1°F13.4°C 83.5°F28.6°C - Calm Calm -- 0.00 in0.0 mb 0.00 in0.0 mm 0.00 in0.0 mm 0.04 in1.0 mm
01:35 PM 56.1°F13.4°C 83.5°F28.6°C - Calm Calm -- 0.00 in0.0 mb 0.00 in0.0 mm 0.00 in0.0 mm 0.04 in1.0 mm
01:40 PM 56.1°F13.4°C 83.5°F28.6°C - Calm Calm -- 0.00 in0.0 mb 0.00 in0.0 mm 0.00 in0.0 mm 0.04 in1.0 mm
01:45 PM 56.1°F13.4°C 83.5°F28.6°C - Calm Calm -- 0.00 in0.0 mb 0.00 in0.0 mm 0.00 in0.0 mm 0.04 in1.0 mm
01:50 PM 56.1°F13.4°C 83.5°F28.6°C - Calm Calm -- 0.00 in0.0 mb 0.00 in0.0 mm 0.00 in0.0 mm 0.04 in1.0 mm
01:55 PM 56.1°F13.4°C 83.5°F28.6°C - Calm Calm -- 0.00 in0.0 mb 0.00 in0.0 mm 0.00 in0.0 mm 0.04 in1.0 mm
01:59 PM 57.7°F14.3°C 85.2°F29.6°C - 18.8 mph W30.3 kmh W 18.8 mph30.3 kmh 30.22 in1023.4 mb 0.00 in0.0 mm 0.00 in0.0 mm 0.04 in1.0 mm
02:04 PM 57.7°F14.3°C 85.2°F29.6°C - 18.0 mph W29.0 kmh W 20.2 mph32.5 kmh 30.22 in1023.4 mb 0.00 in0.0 mm 0.00 in0.0 mm 0.04 in1.0 mm
02:09 PM 57.5°F14.2°C 85.1°F29.5°C - 17.8 mph W28.6 kmh W 21.3 mph34.3 kmh 30.22 in1023.4 mb 0.00 in0.0 mm 0.00 in0.0 mm 0.04 in1.0 mm
02:14 PM 57.6°F14.2°C 85.1°F29.5°C - 16.5 mph WSW26.6 kmh WSW 17.5 mph28.2 kmh 30.23 in1023.7 mb 0.00 in0.0 mm 0.00 in0.0 mm 0.04 in1.0 mm
02:19 PM 57.7°F14.3°C 85.2°F29.6°C - 15.5 mph W24.9 kmh W 17.2 mph27.7 kmh 30.23 in1023.7 mb 0.00 in0.0 mm 0.00 in0.0 mm 0.04 in1.0 mm
02:24 PM 57.8°F14.3°C 85.5°F29.7°C - 21.4 mph WSW34.4 kmh WSW 21.9 mph35.2 kmh 30.23 in1023.7 mb 0.00 in0.0 mm 0.00 in0.0 mm 0.04 in1.0 mm
02:29 PM 58.0°F14.4°C 85.7°F29.8°C - 19.2 mph WSW30.9 kmh WSW 21.7 mph34.9 kmh 30.23 in1023.7 mb 0.00 in0.0 mm 0.00 in0.0 mm 0.04 in1.0 mm
02:34 PM 58.0°F14.4°C 85.6°F29.8°C - 15.5 mph WNW24.9 kmh WNW 17.4 mph28.0 kmh 30.23 in1023.7 mb 0.00 in0.0 mm 0.00 in0.0 mm 0.04 in1.0 mm
02:39 PM 58.0°F14.4°C 85.6°F29.8°C - 17.8 mph W28.6 kmh W 18.2 mph29.3 kmh 30.23 in1023.7 mb 0.00 in0.0 mm 0.00 in0.0 mm 0.04 in1.0 mm
02:44 PM 57.7°F14.3°C 85.2°F29.6°C - 18.3 mph WNW29.5 kmh WNW 19.0 mph30.6 kmh 30.23 in1023.7 mb 0.00 in0.0 mm 0.00 in0.0 mm 0.04 in1.0 mm
02:49 PM 57.8°F14.3°C 85.3°F29.6°C - 15.4 mph W24.8 kmh W 15.6 mph25.1 kmh 30.23 in1023.7 mb 0.00 in0.0 mm 0.00 in0.0 mm 0.04 in1.0 mm
02:54 PM 57.7°F14.3°C 85.2°F29.6°C - 16.8 mph W27.0 kmh W 17.5 mph28.2 kmh 30.24 in1024.0 mb 0.00 in0.0 mm 0.00 in0.0 mm 0.04 in1.0 mm
02:59 PM 57.7°F14.3°C 85.2°F29.6°C - 17.3 mph W27.8 kmh W 17.3 mph27.8 kmh 30.24 in1024.0 mb 0.00 in0.0 mm 0.00 in0.0 mm 0.04 in1.0 mm
03:04 PM 58.0°F14.4°C 85.7°F29.8°C - 15.3 mph W24.6 kmh W 17.6 mph28.3 kmh 30.24 in1024.0 mb 0.00 in0.0 mm 0.00 in0.0 mm 0.04 in1.0 mm
03:09 PM 58.1°F14.5°C 85.8°F29.9°C - 16.1 mph W25.9 kmh W 19.2 mph30.9 kmh 30.23 in1023.7 mb 0.00 in0.0 mm 0.00 in0.0 mm 0.04 in1.0 mm
03:14 PM 58.1°F14.5°C 85.8°F29.9°C - 15.0 mph W24.1 kmh W 18.1 mph29.1 kmh 30.24 in1024.0 mb 0.00 in0.0 mm 0.00 in0.0 mm 0.04 in1.0 mm
03:19 PM 58.1°F14.5°C 85.8°F29.9°C - 14.6 mph W23.5 kmh W 18.9 mph30.4 kmh 30.24 in1024.0 mb 0.00 in0.0 mm 0.00 in0.0 mm 0.04 in1.0 mm
03:24 PM 58.1°F14.5°C 85.8°F29.9°C - 16.9 mph W27.2 kmh W 20.9 mph33.6 kmh 30.24 in1024.0 mb 0.00 in0.0 mm 0.00 in0.0 mm 0.04 in1.0 mm
03:29 PM 58.2°F14.6°C 85.9°F29.9°C - 17.5 mph W28.2 kmh W 21.2 mph34.1 kmh 30.24 in1024.0 mb 0.00 in0.0 mm 0.00 in0.0 mm 0.04 in1.0 mm
03:34 PM 58.2°F14.6°C 85.9°F29.9°C - 17.1 mph W27.5 kmh W 21.7 mph34.9 kmh 30.24 in1024.0 mb 0.00 in0.0 mm 0.00 in0.0 mm 0.04 in1.0 mm
03:39 PM 58.2°F14.6°C 85.9°F29.9°C - 14.4 mph W23.2 kmh W 17.3 mph27.8 kmh 30.25 in1024.4 mb 0.00 in0.0 mm 0.00 in0.0 mm 0.04 in1.0 mm
03:44 PM 58.2°F14.6°C 85.9°F29.9°C - 13.3 mph W21.4 kmh W 17.4 mph28.0 kmh 30.25 in1024.4 mb 0.00 in0.0 mm 0.00 in0.0 mm 0.04 in1.0 mm
03:49 PM 58.1°F14.5°C 85.7°F29.8°C - 13.7 mph WNW22.0 kmh WNW 18.6 mph29.9 kmh 30.25 in1024.4 mb 0.00 in0.0 mm 0.00 in0.0 mm 0.04 in1.0 mm
03:54 PM 58.0°F14.4°C 85.6°F29.8°C - 15.1 mph W24.3 kmh W 19.3 mph31.1 kmh 30.25 in1024.4 mb 0.00 in0.0 mm 0.00 in0.0 mm 0.04 in1.0 mm
03:59 PM 58.0°F14.4°C 85.7°F29.8°C - Calm Calm 0.6 mph1.0 kmh 30.25 in1024.4 mb 0.00 in0.0 mm 0.00 in0.0 mm 0.04 in1.0 mm
04:04 PM 58.0°F14.4°C 85.7°F29.8°C - Calm Calm -- 30.25 in1024.4 mb 0.00 in0.0 mm 0.00 in0.0 mm 0.04 in1.0 mm
04:09 PM 58.0°F14.4°C 85.7°F29.8°C - Calm Calm -- 30.25 in1024.4 mb 0.00 in0.0 mm 0.00 in0.0 mm 0.04 in1.0 mm
04:14 PM 58.0°F14.4°C 85.7°F29.8°C - Calm Calm -- 30.25 in1024.4 mb 0.00 in0.0 mm 0.00 in0.0 mm 0.04 in1.0 mm
04:19 PM 58.0°F14.4°C 85.7°F29.8°C - Calm Calm -- 30.25 in1024.4 mb 0.00 in0.0 mm 0.00 in0.0 mm 0.04 in1.0 mm
04:24 PM 57.8°F14.3°C 85.3°F29.6°C - Calm Calm -- 30.25 in1024.4 mb 0.00 in0.0 mm 0.00 in0.0 mm 0.04 in1.0 mm
04:29 PM 57.8°F14.3°C 85.5°F29.7°C - Calm Calm -- 30.26 in1024.7 mb 0.00 in0.0 mm 0.00 in0.0 mm 0.04 in1.0 mm
04:34 PM 57.7°F14.3°C 85.3°F29.6°C - Calm Calm -- 30.26 in1024.7 mb 0.00 in0.0 mm 0.00 in0.0 mm 0.04 in1.0 mm
04:39 PM 57.7°F14.3°C 85.3°F29.6°C - Calm Calm -- 30.26 in1024.7 mb 0.00 in0.0 mm 0.00 in0.0 mm 0.04 in1.0 mm
04:44 PM 57.7°F14.3°C 85.3°F29.6°C - Calm Calm -- 30.26 in1024.7 mb 0.00 in0.0 mm 0.00 in0.0 mm 0.04 in1.0 mm
04:49 PM 57.7°F14.3°C 85.3°F29.6°C - Calm Calm -- 30.26 in1024.7 mb 0.00 in0.0 mm 0.00 in0.0 mm 0.04 in1.0 mm
04:54 PM 57.7°F14.3°C 85.3°F29.6°C - Calm Calm -- 30.25 in1024.4 mb 0.00 in0.0 mm 0.00 in0.0 mm 0.04 in1.0 mm
04:59 PM 57.6°F14.2°C 85.1°F29.5°C - Calm Calm -- 30.26 in1024.7 mb 0.00 in0.0 mm 0.00 in0.0 mm 0.04 in1.0 mm
05:04 PM 57.6°F14.2°C 85.2°F29.6°C - Calm Calm -- 30.25 in1024.4 mb 0.00 in0.0 mm 0.00 in0.0 mm 0.04 in1.0 mm
05:09 PM 57.6°F14.2°C 85.2°F29.6°C - Calm Calm -- 30.26 in1024.7 mb 0.00 in0.0 mm 0.00 in0.0 mm 0.04 in1.0 mm
05:14 PM 57.6°F14.2°C 85.2°F29.6°C - Calm Calm -- 30.26 in1024.7 mb 0.00 in0.0 mm 0.00 in0.0 mm 0.04 in1.0 mm
05:19 PM 57.5°F14.2°C 85.0°F29.4°C - Calm Calm -- 30.26 in1024.7 mb 0.00 in0.0 mm 0.00 in0.0 mm 0.04 in1.0 mm
05:24 PM 57.7°F14.3°C 85.2°F29.6°C - Calm Calm -- 30.26 in1024.7 mb 0.00 in0.0 mm 0.00 in0.0 mm 0.04 in1.0 mm
05:29 PM 57.7°F14.3°C 85.3°F29.6°C - Calm Calm -- 30.26 in1024.7 mb 0.00 in0.0 mm 0.00 in0.0 mm 0.04 in1.0 mm
05:34 PM 57.7°F14.3°C 85.3°F29.6°C - Calm Calm -- 30.26 in1024.7 mb 0.00 in0.0 mm 0.00 in0.0 mm 0.04 in1.0 mm
05:39 PM 57.7°F14.3°C 85.2°F29.6°C - Calm Calm -- 30.26 in1024.7 mb 0.00 in0.0 mm 0.00 in0.0 mm 0.04 in1.0 mm
05:44 PM 57.7°F14.3°C 85.3°F29.6°C - Calm Calm -- 30.26 in1024.7 mb 0.00 in0.0 mm 0.00 in0.0 mm 0.04 in1.0 mm
05:49 PM 57.7°F14.3°C 85.3°F29.6°C - Calm Calm -- 30.26 in1024.7 mb 0.00 in0.0 mm 0.00 in0.0 mm 0.04 in1.0 mm
05:54 PM 57.7°F14.3°C 85.2°F29.6°C - Calm Calm -- 30.26 in1024.7 mb 0.00 in0.0 mm 0.00 in0.0 mm 0.04 in1.0 mm
05:59 PM 57.6°F14.2°C 85.1°F29.5°C - Calm Calm -- 30.26 in1024.7 mb 0.00 in0.0 mm 0.00 in0.0 mm 0.04 in1.0 mm
06:04 PM 57.5°F14.2°C 85.1°F29.5°C - Calm Calm -- 30.26 in1024.7 mb 0.00 in0.0 mm 0.00 in0.0 mm 0.04 in1.0 mm
06:09 PM 57.3°F14.1°C 84.9°F29.4°C - Calm Calm -- 30.26 in1024.7 mb 0.00 in0.0 mm 0.00 in0.0 mm 0.04 in1.0 mm
06:14 PM 57.2°F14.0°C 84.8°F29.3°C - Calm Calm -- 30.26 in1024.7 mb 0.00 in0.0 mm 0.00 in0.0 mm 0.04 in1.0 mm
06:19 PM 57.2°F14.0°C 84.8°F29.3°C - Calm Calm -- 30.26 in1024.7 mb 0.00 in0.0 mm 0.00 in0.0 mm 0.04 in1.0 mm
06:24 PM 57.0°F13.9°C 84.6°F29.2°C - Calm Calm -- 30.26 in1024.7 mb 0.00 in0.0 mm 0.00 in0.0 mm 0.04 in1.0 mm
06:29 PM 56.8°F13.8°C 84.2°F29.0°C - Calm Calm 0.6 mph1.0 kmh 30.26 in1024.7 mb 0.00 in0.0 mm 0.00 in0.0 mm 0.04 in1.0 mm
06:34 PM 56.8°F13.8°C 84.3°F29.1°C - Calm Calm 0.3 mph0.5 kmh 30.26 in1024.7 mb 0.00 in0.0 mm 0.00 in0.0 mm 0.04 in1.0 mm
06:39 PM 56.7°F13.7°C 84.1°F28.9°C - Calm Calm -- 30.27 in1025.1 mb 0.00 in0.0 mm 0.00 in0.0 mm 0.04 in1.0 mm
06:44 PM 56.7°F13.7°C 84.2°F29.0°C - Calm Calm -- 30.27 in1025.1 mb 0.00 in0.0 mm 0.00 in0.0 mm 0.04 in1.0 mm
06:49 PM 56.7°F13.7°C 84.1°F28.9°C - Calm Calm -- 30.27 in1025.1 mb 0.00 in0.0 mm 0.00 in0.0 mm 0.04 in1.0 mm
06:54 PM 56.7°F13.7°C 84.2°F29.0°C - Calm Calm -- 30.27 in1025.1 mb 0.00 in0.0 mm 0.00 in0.0 mm 0.04 in1.0 mm
06:59 PM 56.7°F13.7°C 84.2°F29.0°C - Calm Calm -- 30.27 in1025.1 mb 0.00 in0.0 mm 0.00 in0.0 mm 0.04 in1.0 mm
07:04 PM 56.5°F13.6°C 83.9°F28.8°C - Calm Calm -- 30.27 in1025.1 mb 0.00 in0.0 mm 0.00 in0.0 mm 0.04 in1.0 mm
07:10 PM 56.6°F13.7°C 84.1°F28.9°C - Calm Calm -- 30.27 in1025.1 mb 0.00 in0.0 mm 0.00 in0.0 mm 0.04 in1.0 mm
07:14 PM 56.5°F13.6°C 84.0°F28.9°C - Calm Calm -- 30.27 in1025.1 mb 0.00 in0.0 mm 0.00 in0.0 mm 0.04 in1.0 mm
07:19 PM 56.5°F13.6°C 84.0°F28.9°C - Calm Calm -- 30.27 in1025.1 mb 0.00 in0.0 mm 0.00 in0.0 mm 0.04 in1.0 mm
07:24 PM 56.6°F13.7°C 84.1°F28.9°C - Calm Calm -- 30.27 in1025.1 mb 0.00 in0.0 mm 0.00 in0.0 mm 0.04 in1.0 mm
07:29 PM 56.7°F13.7°C 84.2°F29.0°C - Calm Calm -- 30.27 in1025.1 mb 0.00 in0.0 mm 0.00 in0.0 mm 0.04 in1.0 mm
07:34 PM 56.7°F13.7°C 84.2°F29.0°C - Calm Calm -- 30.27 in1025.1 mb 0.00 in0.0 mm 0.00 in0.0 mm 0.04 in1.0 mm
07:39 PM 56.7°F13.7°C 84.2°F29.0°C - Calm Calm -- 30.27 in1025.1 mb 0.00 in0.0 mm 0.00 in0.0 mm 0.04 in1.0 mm
07:44 PM 56.7°F13.7°C 84.2°F29.0°C - Calm Calm -- 30.27 in1025.1 mb 0.00 in0.0 mm 0.00 in0.0 mm 0.04 in1.0 mm
07:49 PM 56.7°F13.7°C 84.2°F29.0°C - Calm Calm -- 30.27 in1025.1 mb 0.00 in0.0 mm 0.00 in0.0 mm 0.04 in1.0 mm
07:54 PM 56.8°F13.8°C 84.3°F29.1°C - Calm Calm -- 30.27 in1025.1 mb 0.00 in0.0 mm 0.00 in0.0 mm 0.04 in1.0 mm
07:59 PM 57.0°F13.9°C 84.4°F29.1°C - Calm Calm -- 30.27 in1025.1 mb 0.00 in0.0 mm 0.00 in0.0 mm 0.04 in1.0 mm
08:04 PM 56.9°F13.8°C 84.3°F29.1°C - Calm Calm -- 30.27 in1025.1 mb 0.00 in0.0 mm 0.00 in0.0 mm 0.04 in1.0 mm
08:10 PM 56.8°F13.8°C 84.3°F29.1°C - Calm Calm -- 30.27 in1025.1 mb 0.00 in0.0 mm 0.00 in0.0 mm 0.04 in1.0 mm
08:14 PM 56.7°F13.7°C 84.1°F28.9°C - Calm Calm -- 30.27 in1025.1 mb 0.00 in0.0 mm 0.00 in0.0 mm 0.04 in1.0 mm
08:19 PM 56.7°F13.7°C 84.2°F29.0°C - Calm Calm -- 30.27 in1025.1 mb 0.00 in0.0 mm 0.00 in0.0 mm 0.04 in1.0 mm
08:24 PM 56.7°F13.7°C 84.2°F29.0°C - Calm Calm -- 30.27 in1025.1 mb 0.00 in0.0 mm 0.00 in0.0 mm 0.04 in1.0 mm
08:29 PM 56.7°F13.7°C 84.1°F28.9°C - Calm Calm -- 30.27 in1025.1 mb 0.00 in0.0 mm 0.00 in0.0 mm 0.04 in1.0 mm
08:34 PM 56.7°F13.7°C 84.2°F29.0°C - Calm Calm -- 30.27 in1025.1 mb 0.00 in0.0 mm 0.00 in0.0 mm 0.04 in1.0 mm
08:39 PM 56.6°F13.7°C 84.1°F28.9°C - Calm Calm -- 30.27 in1025.1 mb 0.00 in0.0 mm 0.00 in0.0 mm 0.04 in1.0 mm
08:44 PM 56.6°F13.7°C 84.1°F28.9°C - Calm Calm -- 30.27 in1025.1 mb 0.00 in0.0 mm 0.00 in0.0 mm 0.04 in1.0 mm
08:49 PM 56.7°F13.7°C 84.2°F29.0°C - Calm Calm -- 30.27 in1025.1 mb 0.00 in0.0 mm 0.00 in0.0 mm 0.04 in1.0 mm
08:54 PM 56.7°F13.7°C 84.2°F29.0°C - Calm Calm -- 30.27 in1025.1 mb 0.00 in0.0 mm 0.00 in0.0 mm 0.04 in1.0 mm
08:59 PM 56.7°F13.7°C 84.2°F29.0°C - Calm Calm -- 30.27 in1025.1 mb 0.00 in0.0 mm 0.00 in0.0 mm 0.04 in1.0 mm
09:04 PM 56.8°F13.8°C 84.3°F29.1°C - Calm Calm -- 30.27 in1025.1 mb 0.00 in0.0 mm 0.00 in0.0 mm 0.04 in1.0 mm
09:09 PM 56.7°F13.7°C 84.2°F29.0°C - Calm Calm -- 30.27 in1025.1 mb 0.00 in0.0 mm 0.00 in0.0 mm 0.04 in1.0 mm
09:14 PM 56.7°F13.7°C 84.2°F29.0°C - Calm Calm -- 30.27 in1025.1 mb 0.00 in0.0 mm 0.00 in0.0 mm 0.04 in1.0 mm
09:19 PM 56.6°F13.7°C 84.1°F28.9°C - Calm Calm -- 30.27 in1025.1 mb 0.00 in0.0 mm 0.00 in0.0 mm 0.04 in1.0 mm
09:24 PM 56.5°F13.6°C 83.9°F28.8°C - Calm Calm -- 30.27 in1025.1 mb 0.00 in0.0 mm 0.00 in0.0 mm 0.04 in1.0 mm
09:29 PM 56.5°F13.6°C 83.9°F28.8°C - Calm Calm -- 30.27 in1025.1 mb 0.00 in0.0 mm 0.00 in0.0 mm 0.04 in1.0 mm
09:34 PM 56.7°F13.7°C 84.2°F29.0°C - Calm Calm -- 30.27 in1025.1 mb 0.00 in0.0 mm 0.00 in0.0 mm 0.04 in1.0 mm
09:39 PM 56.8°F13.8°C 84.3°F29.1°C - Calm Calm -- 30.27 in1025.1 mb 0.00 in0.0 mm 0.00 in0.0 mm 0.04 in1.0 mm
09:44 PM 56.8°F13.8°C 84.3°F29.1°C - Calm Calm -- 30.27 in1025.1 mb 0.00 in0.0 mm 0.00 in0.0 mm 0.04 in1.0 mm
09:49 PM 56.9°F13.8°C 84.4°F29.1°C - Calm Calm -- 30.28 in1025.4 mb 0.00 in0.0 mm 0.00 in0.0 mm 0.04 in1.0 mm
09:54 PM 57.0°F13.9°C 84.4°F29.1°C - Calm Calm -- 30.28 in1025.4 mb 0.00 in0.0 mm 0.00 in0.0 mm 0.04 in1.0 mm
09:59 PM 57.0°F13.9°C 84.6°F29.2°C - Calm Calm -- 30.27 in1025.1 mb 0.00 in0.0 mm 0.00 in0.0 mm 0.04 in1.0 mm
10:04 PM 57.1°F13.9°C 84.6°F29.2°C - Calm Calm -- 30.27 in1025.1 mb 0.00 in0.0 mm 0.00 in0.0 mm 0.04 in1.0 mm
10:09 PM 57.1°F13.9°C 84.7°F29.3°C - Calm Calm -- 30.28 in1025.4 mb 0.00 in0.0 mm 0.00 in0.0 mm 0.04 in1.0 mm
10:14 PM 57.1°F13.9°C 84.7°F29.3°C - Calm Calm -- 30.27 in1025.1 mb 0.00 in0.0 mm 0.00 in0.0 mm 0.04 in1.0 mm
10:19 PM 56.9°F13.8°C 84.4°F29.1°C - Calm Calm -- 30.28 in1025.4 mb 0.00 in0.0 mm 0.00 in0.0 mm 0.04 in1.0 mm
10:24 PM 56.7°F13.7°C 84.2°F29.0°C - Calm Calm -- 30.27 in1025.1 mb 0.00 in0.0 mm 0.00 in0.0 mm 0.04 in1.0 mm
10:29 PM 56.7°F13.7°C 84.2°F29.0°C - Calm Calm -- 30.27 in1025.1 mb 0.00 in0.0 mm 0.00 in0.0 mm 0.04 in1.0 mm
10:34 PM 56.6°F13.7°C 84.1°F28.9°C - Calm Calm -- 30.27 in1025.1 mb 0.00 in0.0 mm 0.00 in0.0 mm 0.04 in1.0 mm
10:39 PM 56.5°F13.6°C 84.0°F28.9°C - Calm Calm -- 30.27 in1025.1 mb 0.00 in0.0 mm 0.00 in0.0 mm 0.04 in1.0 mm
10:44 PM 56.5°F13.6°C 84.0°F28.9°C - Calm Calm -- 30.27 in1025.1 mb 0.00 in0.0 mm 0.00 in0.0 mm 0.04 in1.0 mm
10:49 PM 56.5°F13.6°C 83.9°F28.8°C - Calm Calm -- 30.27 in1025.1 mb 0.00 in0.0 mm 0.00 in0.0 mm 0.04 in1.0 mm
10:54 PM 56.4°F13.6°C 83.9°F28.8°C - Calm Calm -- 30.27 in1025.1 mb 0.00 in0.0 mm 0.00 in0.0 mm 0.04 in1.0 mm
11:04 PM 56.5°F13.6°C 84.0°F28.9°C - Calm Calm -- 30.27 in1025.1 mb 0.00 in0.0 mm 0.00 in0.0 mm 0.00 in0.0 mm
11:09 PM 56.5°F13.6°C 83.9°F28.8°C - Calm Calm -- 30.27 in1025.1 mb 0.00 in0.0 mm 0.00 in0.0 mm 0.00 in0.0 mm
11:14 PM 56.5°F13.6°C 84.0°F28.9°C - Calm Calm -- 30.27 in1025.1 mb 0.00 in0.0 mm 0.00 in0.0 mm 0.00 in0.0 mm
11:19 PM 56.3°F13.5°C 83.7°F28.7°C - Calm Calm -- 30.27 in1025.1 mb 0.00 in0.0 mm 0.00 in0.0 mm 0.00 in0.0 mm
11:24 PM 56.2°F13.4°C 83.7°F28.7°C - Calm Calm -- 30.27 in1025.1 mb 0.00 in0.0 mm 0.00 in0.0 mm 0.00 in0.0 mm
11:29 PM 56.2°F13.4°C 83.5°F28.6°C - Calm Calm -- 30.27 in1025.1 mb 0.00 in0.0 mm 0.00 in0.0 mm 0.00 in0.0 mm
11:34 PM 56.2°F13.4°C 83.7°F28.7°C - Calm Calm -- 30.27 in1025.1 mb 0.00 in0.0 mm 0.00 in0.0 mm 0.00 in0.0 mm
11:39 PM 56.4°F13.6°C 83.8°F28.8°C - Calm Calm -- 30.26 in1024.7 mb 0.00 in0.0 mm 0.00 in0.0 mm 0.00 in0.0 mm
11:44 PM 56.6°F13.7°C 84.0°F28.9°C - Calm Calm -- 30.26 in1024.7 mb 0.00 in0.0 mm 0.00 in0.0 mm 0.00 in0.0 mm
11:49 PM 56.7°F13.7°C 84.2°F29.0°C - Calm Calm -- 30.26 in1024.7 mb 0.00 in0.0 mm 0.00 in0.0 mm 0.00 in0.0 mm
11:54 PM 56.8°F13.8°C 84.3°F29.1°C - Calm Calm -- 30.26 in1024.7 mb 0.00 in0.0 mm 0.00 in0.0 mm 0.00 in0.0 mm
11:59 PM 57.0°F13.9°C 84.6°F29.2°C - Calm Calm -- 30.26 in1024.7 mb 0.00 in0.0 mm 0.00 in0.0 mm 0.00 in0.0 mm